Time;durP1;ratioP1;P1;durP2;ratioP2;P2;SDS_P1;SDS_P2;PMS_P1;PMS_P2;Temp;Humidity;BMP_temperature;BMP_pressure;BME280_temperature;BME280_humidity;BME280_pressure;Samples;Min_cycle;Max_cycle;Signal;HPM_P1;HPM_P2
2023/06/01 00:03:46;;;;;;;7.18;2.88;;;;;14.30;96566.00;;;;8290843;28;20252;-57
2023/06/01 00:07:50;;;;;;;6.25;2.97;;;;;14.10;96566.00;;;;8289499;28;20819;-57
2023/06/01 00:11:53;;;;;;;4.05;2.63;;;;;13.90;96564.00;;;;8287370;28;20317;-57
2023/06/01 00:15:56;;;;;;;4.35;2.78;;;;;13.90;96564.00;;;;8295763;28;20230;-57
2023/06/01 00:20:07;;;;;;;4.53;2.63;;;;;14.00;96557.00;;;;8292861;28;20202;-58
2023/06/01 00:24:11;;;;;;;8.85;2.70;;;;;13.90;96560.00;;;;8282027;28;20774;-58
2023/06/01 00:28:17;;;;;;;5.97;2.88;;;;;14.00;96555.00;;;;8285631;28;20854;-57
2023/06/01 00:32:20;;;;;;;3.97;2.65;;;;;13.90;96553.00;;;;8302665;28;20873;-57
2023/06/01 00:36:25;;;;;;;5.20;2.80;;;;;13.80;96557.00;;;;8291240;28;20298;-57
2023/06/01 00:40:40;;;;;;;6.30;3.17;;;;;13.70;96550.00;;;;8293199;28;20193;-58
2023/06/01 00:44:46;;;;;;;6.72;3.65;;;;;13.60;96541.00;;;;8287431;28;20224;-58
2023/06/01 00:48:50;;;;;;;4.22;3.17;;;;;13.30;96547.00;;;;8297437;28;20313;-58
2023/06/01 00:52:58;;;;;;;7.50;3.55;;;;;13.10;96543.00;;;;8271999;28;20201;-57
2023/06/01 00:57:02;;;;;;;4.80;3.08;;;;;12.90;96538.00;;;;8281622;28;20245;-58
2023/06/01 01:01:07;;;;;;;4.28;3.25;;;;;12.80;96537.00;;;;8260383;28;20740;-58
2023/06/01 01:05:11;;;;;;;6.63;3.53;;;;;12.60;96530.00;;;;8279677;28;20226;-58
2023/06/01 01:09:29;;;;;;;7.43;3.53;;;;;12.40;96528.00;;;;8281152;28;20224;-58
2023/06/01 01:13:47;;;;;;;6.07;3.53;;;;;12.30;96531.00;;;;8278718;28;20281;-58
2023/06/01 01:18:04;;;;;;;6.82;3.63;;;;;12.10;96534.00;;;;8276065;28;20235;-58
2023/06/01 01:22:20;;;;;;;6.82;3.50;;;;;12.00;96537.00;;;;8284357;28;20258;-58
2023/06/01 01:26:42;;;;;;;4.97;3.70;;;;;11.90;96537.00;;;;8275393;28;20242;-59
2023/06/01 01:30:48;;;;;;;9.82;3.63;;;;;11.80;96530.00;;;;8268398;28;20302;-58
2023/06/01 01:34:54;;;;;;;5.93;3.25;;;;;11.70;96530.00;;;;8266920;28;20310;-57
2023/06/01 01:38:57;;;;;;;4.18;3.20;;;;;11.70;96527.00;;;;8281666;28;20804;-57
2023/06/01 01:43:02;;;;;;;7.85;3.20;;;;;11.60;96520.00;;;;8284107;28;20206;-57
2023/06/01 01:47:16;;;;;;;7.13;3.25;;;;;11.70;96519.00;;;;8280486;28;20322;-57
2023/06/01 01:51:25;;;;;;;6.70;3.50;;;;;11.70;96511.00;;;;8276350;28;20208;-58
2023/06/01 01:55:31;;;;;;;4.72;3.30;;;;;11.60;96504.00;;;;8271112;28;20221;-57
2023/06/01 01:59:34;;;;;;;5.78;3.15;;;;;11.60;96502.00;;;;8280239;28;20209;-57
2023/06/01 02:03:39;;;;;;;6.80;3.03;;;;;11.60;96506.00;;;;8277139;28;20225;-57
2023/06/01 02:07:42;;;;;;;6.07;3.95;;;;;11.50;96505.00;;;;8278856;28;20256;-57
2023/06/01 02:11:54;;;;;;;5.32;3.55;;;;;11.50;96498.00;;;;8282101;28;20207;-58
2023/06/01 02:15:59;;;;;;;7.38;3.33;;;;;11.40;96500.00;;;;8264260;28;20215;-58
2023/06/01 02:20:07;;;;;;;6.75;3.13;;;;;11.30;96491.00;;;;8283688;28;20210;-58
2023/06/01 02:24:10;;;;;;;8.00;3.35;;;;;11.30;96494.00;;;;8283953;28;20204;-58
2023/06/01 02:28:13;;;;;;;5.60;3.03;;;;;11.30;96488.00;;;;8288504;28;20697;-57
2023/06/01 02:32:16;;;;;;;7.75;3.50;;;;;11.50;96493.00;;;;8285560;28;20287;-58
2023/06/01 02:36:21;;;;;;;6.30;3.30;;;;;11.80;96479.00;;;;8276647;28;20210;-57
2023/06/01 02:40:25;;;;;;;5.30;2.70;;;;;12.00;96483.00;;;;8286676;28;20246;-58
2023/06/01 02:44:37;;;;;;;6.28;2.75;;;;;12.40;96478.00;;;;8281316;28;20662;-57
2023/06/01 02:48:40;;;;;;;4.07;2.60;;;;;12.70;96476.00;;;;8283912;28;20242;-57
2023/06/01 02:52:47;;;;;;;5.30;3.25;;;;;12.50;96475.00;;;;8282174;28;20213;-58
2023/06/01 02:56:53;;;;;;;3.50;2.72;;;;;12.20;96471.00;;;;8280084;28;20205;-58
2023/06/01 03:05:09;;;;;;;4.95;2.80;;;;;12.00;96473.00;;;;8151050;29;20322;-58
2023/06/01 03:09:14;;;;;;;6.22;3.17;;;;;11.80;96473.00;;;;8157456;29;20609;-58
2023/06/01 03:13:19;;;;;;;5.15;2.85;;;;;11.60;96471.00;;;;8156102;29;20237;-58
2023/06/01 03:17:22;;;;;;;5.05;3.17;;;;;11.40;96480.00;;;;8160734;29;20208;-58
2023/06/01 03:21:27;;;;;;;7.53;3.20;;;;;11.40;96474.00;;;;8156860;29;20211;-58
2023/06/01 03:25:33;;;;;;;5.10;2.90;;;;;11.20;96477.00;;;;8159573;29;20930;-58
2023/06/01 03:29:36;;;;;;;3.38;3.08;;;;;11.10;96480.00;;;;8156636;29;20222;-58
2023/06/01 03:33:39;;;;;;;4.97;3.30;;;;;11.10;96479.00;;;;8158064;29;20620;-58
2023/06/01 03:37:48;;;;;;;7.10;3.53;;;;;11.10;96480.00;;;;8153885;29;20876;-58
2023/06/01 03:42:01;;;;;;;4.78;2.78;;;;;11.10;96486.00;;;;8144639;29;20760;-58
2023/06/01 03:46:05;;;;;;;5.10;2.88;;;;;11.20;96478.00;;;;8156157;29;20229;-58
2023/06/01 03:50:10;;;;;;;4.75;2.67;;;;;11.50;96487.00;;;;8134908;29;20291;-58
2023/06/01 03:54:15;;;;;;;4.43;2.40;;;;;11.80;96479.00;;;;8151683;29;20241;-58
2023/06/01 03:58:26;;;;;;;6.60;3.03;;;;;12.00;96483.00;;;;8155758;29;21024;-58
2023/06/01 04:02:30;;;;;;;5.57;2.90;;;;;12.00;96486.00;;;;8173656;28;20351;-58
2023/06/01 04:06:41;;;;;;;7.20;3.58;;;;;12.20;96485.00;;;;8204854;28;20686;-58
2023/06/01 04:10:44;;;;;;;4.18;3.38;;;;;12.40;96487.00;;;;8205092;28;20207;-57
2023/06/01 04:14:52;;;;;;;8.55;3.45;;;;;12.60;96487.00;;;;8207984;28;20211;-58
2023/06/01 04:18:57;;;;;;;5.13;3.00;;;;;12.90;96492.00;;;;8200812;28;20284;-58
2023/06/01 04:23:01;;;;;;;6.93;3.20;;;;;13.30;96497.00;;;;8199465;28;20226;-57
2023/06/01 04:27:08;;;;;;;5.32;3.30;;;;;13.80;96500.00;;;;8196021;28;20327;-58
2023/06/01 04:31:16;;;;;;;6.28;3.05;;;;;14.30;96501.00;;;;8198828;28;20201;-58
2023/06/01 04:35:21;;;;;;;4.25;3.10;;;;;14.90;96498.00;;;;8193934;28;20654;-58
2023/06/01 04:39:25;;;;;;;7.57;3.50;;;;;15.50;96502.00;;;;8205768;28;20206;-58
2023/06/01 04:43:28;;;;;;;6.47;3.33;;;;;15.90;96506.00;;;;8199723;28;20222;-58
2023/06/01 04:47:36;;;;;;;7.22;3.33;;;;;16.30;96502.00;;;;8197578;28;20318;-59
2023/06/01 04:51:51;;;;;;;5.13;3.13;;;;;16.80;96503.00;;;;8198424;28;20306;-58
2023/06/01 04:55:59;;;;;;;7.05;3.15;;;;;17.20;96505.00;;;;8201963;28;20270;-58
2023/06/01 05:00:04;;;;;;;3.38;2.50;;;;;17.80;96502.00;;;;8202178;28;20209;-58
2023/06/01 05:04:10;;;;;;;7.03;4.07;;;;;18.30;96511.00;;;;8192390;28;20319;-59
2023/06/01 05:08:14;;;;;;;10.32;3.05;;;;;18.60;96505.00;;;;8203548;28;20230;-58
2023/06/01 05:12:19;;;;;;;5.32;2.95;;;;;18.80;96496.00;;;;8173721;28;20218;-60
2023/06/01 05:16:26;;;;;;;3.72;2.40;;;;;19.00;96506.00;;;;8185418;28;20208;-58
2023/06/01 05:20:36;;;;;;;3.17;2.60;;;;;19.30;96511.00;;;;8190635;28;20819;-59
2023/06/01 05:24:39;;;;;;;5.75;2.50;;;;;19.60;96512.00;;;;8187816;28;20753;-59
2023/06/01 05:28:45;;;;;;;4.35;2.55;;;;;20.00;96516.00;;;;8192658;28;20649;-58
2023/06/01 05:32:49;;;;;;;4.13;2.30;;;;;19.90;96510.00;;;;8200441;28;20721;-58
2023/06/01 05:36:54;;;;;;;3.55;2.63;;;;;19.40;96510.00;;;;8201880;28;20258;-59
2023/06/01 05:40:57;;;;;;;5.47;2.72;;;;;19.20;96505.00;;;;8175478;28;20315;-59
2023/06/01 05:45:00;;;;;;;5.70;2.25;;;;;19.20;96504.00;;;;8196335;28;20205;-59
2023/06/01 05:49:03;;;;;;;7.60;2.78;;;;;19.30;96503.00;;;;8195585;28;20263;-59
2023/06/01 05:53:10;;;;;;;5.28;2.35;;;;;19.50;96494.00;;;;8200240;28;20290;-59
2023/06/01 05:57:15;;;;;;;3.22;2.47;;;;;19.90;96498.00;;;;8198120;28;20204;-59
2023/06/01 06:01:18;;;;;;;3.05;2.30;;;;;20.40;96503.00;;;;8202044;28;20708;-59
2023/06/01 06:05:24;;;;;;;8.90;2.60;;;;;20.80;96506.00;;;;8210919;28;20234;-59
2023/06/01 06:09:31;;;;;;;4.82;2.40;;;;;21.10;96499.00;;;;8206100;28;20270;-59
2023/06/01 06:13:35;;;;;;;5.15;2.53;;;;;21.20;96498.00;;;;8203918;28;20202;-60
2023/06/01 06:17:38;;;;;;;6.38;2.30;;;;;21.30;96506.00;;;;8208004;28;20206;-59
2023/06/01 06:21:43;;;;;;;4.32;2.33;;;;;21.00;96496.00;;;;8199040;28;20295;-58
2023/06/01 06:25:52;;;;;;;3.17;2.40;;;;;21.10;96506.00;;;;8209204;28;20330;-60
2023/06/01 06:29:55;;;;;;;3.92;2.30;;;;;21.30;96511.00;;;;8205092;28;20762;-59
2023/06/01 06:33:58;;;;;;;5.05;2.38;;;;;21.60;96505.00;;;;8198609;28;20212;-59
2023/06/01 06:38:01;;;;;;;7.82;2.10;;;;;21.90;96508.00;;;;8206547;28;20238;-58
2023/06/01 06:42:09;;;;;;;4.43;2.50;;;;;22.30;96504.00;;;;8191162;28;20705;-59
2023/06/01 06:46:14;;;;;;;25.27;3.15;;;;;22.50;96506.00;;;;8182028;28;20216;-59
2023/06/01 06:50:19;;;;;;;5.10;2.42;;;;;22.40;96507.00;;;;8211000;28;20219;-59
2023/06/01 06:54:27;;;;;;;7.00;2.45;;;;;22.60;96518.00;;;;8209304;28;20211;-58
2023/06/01 06:58:37;;;;;;;6.10;2.55;;;;;22.90;96511.00;;;;8206178;28;20291;-59
2023/06/01 07:02:44;;;;;;;3.50;2.40;;;;;23.00;96514.00;;;;8210180;28;20721;-59
2023/06/01 07:06:48;;;;;;;4.40;2.58;;;;;23.30;96517.00;;;;8204344;28;20357;-59
2023/06/01 07:10:51;;;;;;;7.60;2.20;;;;;23.30;96522.00;;;;8205803;28;20202;-59
2023/06/01 07:14:55;;;;;;;4.80;2.70;;;;;23.50;96519.00;;;;8208691;28;20589;-58
2023/06/01 07:18:59;;;;;;;4.25;2.20;;;;;23.70;96515.00;;;;8209470;28;20212;-59
2023/06/01 07:23:04;;;;;;;6.07;2.28;;;;;24.00;96506.00;;;;8199104;28;20203;-59
2023/06/01 07:27:08;;;;;;;6.30;2.10;;;;;23.90;96508.00;;;;8209086;28;20233;-59
2023/06/01 07:31:13;;;;;;;5.07;2.42;;;;;24.10;96516.00;;;;8208991;28;20218;-59
2023/06/01 07:35:16;;;;;;;5.25;2.47;;;;;24.30;96503.00;;;;8198811;28;20416;-59
2023/06/01 07:39:20;;;;;;;2.70;2.15;;;;;24.90;96507.00;;;;8196722;28;20286;-59
2023/06/01 07:43:26;;;;;;;4.28;2.40;;;;;25.30;96507.00;;;;8179362;28;20319;-59
2023/06/01 07:47:31;;;;;;;11.27;2.50;;;;;25.50;96508.00;;;;8194103;28;20576;-58
2023/06/01 07:51:36;;;;;;;7.50;2.45;;;;;25.70;96513.00;;;;8196115;28;20203;-59
2023/06/01 07:55:39;;;;;;;3.05;2.53;;;;;26.40;96508.00;;;;8191126;28;20224;-59
2023/06/01 08:03:58;;;;;;;7.03;2.90;;;;;27.20;96513.00;;;;8198651;28;20227;-59
2023/06/01 08:08:07;;;;;;;11.23;3.03;;;;;27.60;96509.00;;;;8198641;28;20257;-58
2023/06/01 08:12:13;;;;;;;3.90;2.67;;;;;27.90;96509.00;;;;8198981;28;20238;-59
2023/06/01 08:16:22;;;;;;;7.93;2.55;;;;;28.20;96507.00;;;;8198197;28;20204;-59
2023/06/01 08:20:30;;;;;;;3.85;2.95;;;;;28.80;96506.00;;;;8197795;28;20207;-59
2023/06/01 08:24:34;;;;;;;7.32;2.88;;;;;29.10;96511.00;;;;8198159;28;20717;-58
2023/06/01 08:28:41;;;;;;;11.13;3.25;;;;;29.50;96507.00;;;;8205692;28;20373;-59
2023/06/01 08:32:45;;;;;;;11.15;3.17;;;;;29.40;96505.00;;;;8197058;28;20255;-60
2023/06/01 08:36:52;;;;;;;6.03;2.97;;;;;29.50;96496.00;;;;8204416;28;20196;-59
2023/06/01 08:40:58;;;;;;;2.85;2.65;;;;;29.50;96497.00;;;;8200656;28;20291;-59
2023/06/01 08:45:05;;;;;;;9.70;3.35;;;;;30.20;96501.00;;;;8196558;28;20208;-59
2023/06/01 08:49:12;;;;;;;10.00;3.42;;;;;30.00;96496.00;;;;8193099;28;20342;-58
2023/06/01 08:53:21;;;;;;;5.97;3.22;;;;;30.10;96498.00;;;;8205817;28;20772;-59
2023/06/01 08:57:25;;;;;;;6.88;3.03;;;;;30.90;96492.00;;;;8194868;28;20231;-59
2023/06/01 09:01:28;;;;;;;7.25;3.15;;;;;31.70;96500.00;;;;8193371;28;20279;-60
2023/06/01 09:05:34;;;;;;;6.43;3.30;;;;;32.00;96495.00;;;;8200211;28;20231;-60
2023/06/01 09:09:39;;;;;;;9.07;3.53;;;;;31.90;96497.00;;;;8210314;28;20238;-59
2023/06/01 09:13:45;;;;;;;5.65;3.17;;;;;32.40;96491.00;;;;8198446;28;20204;-59
2023/06/01 09:17:53;;;;;;;5.07;2.80;;;;;32.50;96487.00;;;;8195179;28;20231;-59
2023/06/01 09:22:00;;;;;;;3.95;2.95;;;;;32.60;96489.00;;;;8196466;28;20311;-59
2023/06/01 09:26:09;;;;;;;5.28;2.80;;;;;32.10;96480.00;;;;8177443;28;20210;-59
2023/06/01 09:30:13;;;;;;;7.78;3.22;;;;;31.90;96479.00;;;;8196466;28;20219;-60
2023/06/01 09:34:18;;;;;;;2.63;2.42;;;;;32.00;96484.00;;;;8210443;28;20226;-59
2023/06/01 09:38:23;;;;;;;4.30;2.53;;;;;32.00;96478.00;;;;8195853;28;20235;-59
2023/06/01 09:42:33;;;;;;;4.20;2.97;;;;;32.50;96477.00;;;;8198020;28;20638;-60
2023/06/01 09:46:51;;;;;;;2.60;2.30;;;;;33.20;96476.00;;;;8190990;28;20207;-60
2023/06/01 09:50:55;;;;;;;6.13;2.65;;;;;34.40;96477.00;;;;8180211;28;20240;-59
2023/06/01 09:55:10;;;;;;;5.07;2.78;;;;;35.10;96477.00;;;;8195037;28;20228;-57
2023/06/01 09:59:20;;;;;;;6.18;2.90;;;;;35.60;96473.00;;;;8179482;28;20200;-58
2023/06/01 10:03:24;;;;;;;6.15;2.55;;;;;35.70;96474.00;;;;8193368;28;20326;-57
2023/06/01 10:07:30;;;;;;;3.15;2.40;;;;;36.00;96468.00;;;;8191153;28;20590;-56
2023/06/01 10:11:34;;;;;;;3.30;2.47;;;;;35.20;96469.00;;;;8195422;28;20214;-56
2023/06/01 10:15:43;;;;;;;6.03;2.30;;;;;34.50;96461.00;;;;8203222;28;20756;-57
2023/06/01 10:19:46;;;;;;;5.97;2.47;;;;;33.90;96461.00;;;;8201203;28;20207;-57
2023/06/01 10:23:51;;;;;;;3.65;2.67;;;;;34.50;96457.00;;;;8198310;28;20765;-57
2023/06/01 10:28:02;;;;;;;6.07;2.45;;;;;35.40;96463.00;;;;8206982;28;20979;-57
2023/06/01 10:32:43;;;;;;;7.80;2.78;;;;;35.10;96453.00;;;;8210776;28;20208;-58
2023/06/01 10:37:20;;;;;;;4.15;2.65;;;;;33.90;96448.00;;;;8200583;28;20645;-57
2023/06/01 10:41:33;;;;;;;2.85;2.22;;;;;34.00;96446.00;;;;8198344;28;20322;-57
2023/06/01 10:45:42;;;;;;;4.55;2.53;;;;;33.40;96447.00;;;;8167014;28;20208;-57
2023/06/01 10:50:15;;;;;;;6.80;2.42;;;;;33.80;96441.00;;;;8206812;28;20251;-58
2023/06/01 10:54:31;;;;;;;3.63;2.45;;;;;33.60;96435.00;;;;8204445;28;20211;-59
2023/06/01 10:58:34;;;;;;;4.13;2.70;;;;;33.80;96431.00;;;;8209224;28;20883;-59
2023/06/01 11:02:51;;;;;;;4.25;2.67;;;;;34.50;96425.00;;;;8203103;28;20238;-59
2023/06/01 11:07:44;;;;;;;6.55;2.85;;;;;34.40;96426.00;;;;8202618;28;20702;-58
2023/06/01 11:12:04;;;;;;;2.90;2.53;;;;;34.80;96426.00;;;;8192655;28;20311;-58
2023/06/01 11:16:29;;;;;;;2.53;2.33;;;;;35.10;96420.00;;;;8202787;28;20282;-59
2023/06/01 11:20:42;;;;;;;4.40;2.70;;;;;35.70;96403.00;;;;8197027;28;20200;-58
2023/06/01 11:24:54;;;;;;;5.38;2.60;;;;;36.40;96403.00;;;;8202966;28;20196;-59
2023/06/01 11:29:08;;;;;;;14.25;2.67;;;;;37.20;96400.00;;;;8183792;28;20236;-58
2023/06/01 11:33:12;;;;;;;5.68;2.80;;;;;37.90;96403.00;;;;8205480;28;20203;-58
2023/06/01 11:37:18;;;;;;;5.85;2.40;;;;;38.40;96401.00;;;;8169615;28;20208;-58
2023/06/01 11:41:23;;;;;;;3.92;2.50;;;;;37.10;96398.00;;;;8201505;28;20226;-59
2023/06/01 11:45:28;;;;;;;6.63;2.58;;;;;36.00;96391.00;;;;8200937;28;20260;-59
2023/06/01 11:49:32;;;;;;;6.82;3.17;;;;;35.90;96390.00;;;;8200832;28;20255;-60
2023/06/01 11:53:40;;;;;;;4.97;2.75;;;;;35.80;96388.00;;;;8198257;28;20204;-59
2023/06/01 11:57:45;;;;;;;5.97;2.78;;;;;36.00;96378.00;;;;8203742;28;20204;-57
2023/06/01 12:01:53;;;;;;;4.70;2.60;;;;;35.90;96378.00;;;;8204771;28;20223;-59
2023/06/01 12:05:59;;;;;;;7.32;2.80;;;;;35.50;96376.00;;;;8196029;28;20229;-58
2023/06/01 12:10:02;;;;;;;6.10;3.05;;;;;35.70;96367.00;;;;8207183;28;20235;-59
2023/06/01 12:14:10;;;;;;;5.88;2.83;;;;;35.30;96375.00;;;;8208790;28;20946;-58
2023/06/01 12:18:30;;;;;;;4.28;2.47;;;;;35.90;96366.00;;;;8195342;28;20792;-59
2023/06/01 12:22:35;;;;;;;3.75;2.30;;;;;36.50;96359.00;;;;8199911;28;20813;-58
2023/06/01 12:26:40;;;;;;;9.80;2.88;;;;;36.00;96366.00;;;;8200545;28;20207;-58
2023/06/01 12:30:47;;;;;;;4.32;2.60;;;;;35.00;96361.00;;;;8198712;28;20646;-58
2023/06/01 12:35:06;;;;;;;4.65;2.70;;;;;34.20;96356.00;;;;8213953;28;20215;-59
2023/06/01 12:39:10;;;;;;;4.63;2.40;;;;;33.60;96353.00;;;;8201748;28;20294;-58
2023/06/01 12:43:20;;;;;;;3.67;2.45;;;;;33.00;96354.00;;;;8206040;28;20206;-58
2023/06/01 12:47:27;;;;;;;5.00;2.58;;;;;32.40;96346.00;;;;8205333;28;20201;-58
2023/06/01 12:51:32;;;;;;;2.03;1.90;;;;;31.90;96348.00;;;;8202522;28;20231;-59
2023/06/01 12:55:35;;;;;;;2.92;2.20;;;;;31.60;96342.00;;;;8201030;28;20211;-59
2023/06/01 12:59:41;;;;;;;4.10;2.53;;;;;31.70;96352.00;;;;8195619;28;20255;-58
2023/06/01 13:03:47;;;;;;;5.75;2.47;;;;;31.30;96338.00;;;;8196841;28;20235;-58
2023/06/01 13:07:54;;;;;;;5.43;2.60;;;;;31.40;96336.00;;;;8211740;28;20223;-59
2023/06/01 13:12:00;;;;;;;3.05;2.10;;;;;31.10;96338.00;;;;8195163;28;20246;-59
2023/06/01 13:16:03;;;;;;;3.22;2.65;;;;;31.10;96340.00;;;;8202648;28;20647;-58
2023/06/01 13:20:11;;;;;;;3.65;2.60;;;;;31.40;96334.00;;;;8185371;28;20250;-59
2023/06/01 13:24:17;;;;;;;4.18;2.50;;;;;31.50;96324.00;;;;8200158;28;20214;-58
2023/06/01 13:28:21;;;;;;;6.10;2.65;;;;;31.90;96324.00;;;;8198665;28;20254;-58
2023/06/01 13:32:24;;;;;;;3.63;2.30;;;;;32.60;96315.00;;;;8198489;28;20207;-58
2023/06/01 13:36:29;;;;;;;7.15;2.60;;;;;33.00;96318.00;;;;8201791;28;20200;-57
2023/06/01 13:40:33;;;;;;;4.30;2.75;;;;;33.30;96310.00;;;;8208293;28;20259;-58
2023/06/01 13:44:40;;;;;;;7.80;2.53;;;;;33.50;96306.00;;;;8203394;28;20633;-58
2023/06/01 13:48:45;;;;;;;9.38;2.67;;;;;33.50;96307.00;;;;8199809;28;20282;-58
2023/06/01 13:52:49;;;;;;;6.97;2.65;;;;;33.50;96293.00;;;;8204941;28;20202;-58
2023/06/01 13:56:56;;;;;;;5.00;2.97;;;;;33.90;96292.00;;;;8204827;28;20212;-59
2023/06/01 14:01:00;;;;;;;5.97;2.85;;;;;34.00;96285.00;;;;8202383;28;20253;-58
2023/06/01 14:05:04;;;;;;;8.52;2.90;;;;;34.00;96283.00;;;;8196979;28;20235;-58
2023/06/01 14:09:14;;;;;;;7.45;2.88;;;;;34.30;96278.00;;;;8199941;28;20818;-58
2023/06/01 14:13:19;;;;;;;3.03;2.63;;;;;34.70;96274.00;;;;8199026;28;20207;-58
2023/06/01 14:17:27;;;;;;;8.45;3.25;;;;;34.60;96272.00;;;;8199147;28;20219;-58
2023/06/01 14:21:34;;;;;;;13.75;3.40;;;;;34.60;96263.00;;;;8202304;28;20200;-58
2023/06/01 14:25:45;;;;;;;5.70;2.55;;;;;35.00;96260.00;;;;8207010;28;20247;-60
2023/06/01 14:29:50;;;;;;;7.97;2.78;;;;;35.30;96261.00;;;;8203350;28;20638;-58
2023/06/01 14:33:53;;;;;;;3.42;2.50;;;;;35.20;96252.00;;;;8206287;28;20208;-58
2023/06/01 14:37:57;;;;;;;2.72;2.40;;;;;34.40;96253.00;;;;8196366;28;20236;-58
2023/06/01 14:42:01;;;;;;;9.50;2.70;;;;;33.90;96251.00;;;;8182145;28;20803;-58
2023/06/01 14:46:06;;;;;;;10.20;3.08;;;;;33.80;96247.00;;;;8201909;28;20321;-59
2023/06/01 14:50:10;;;;;;;3.60;2.60;;;;;33.80;96244.00;;;;8201414;28;20224;-58
2023/06/01 14:54:17;;;;;;;6.53;3.20;;;;;34.00;96238.00;;;;8202724;28;20432;-58
2023/06/01 14:58:40;;;;;;;13.30;3.60;;;;;34.20;96229.00;;;;8202326;28;20192;-58
2023/06/01 15:02:43;;;;;;;10.55;3.10;;;;;34.30;96228.00;;;;8202497;28;20232;-58
2023/06/01 15:06:49;;;;;;;6.35;2.72;;;;;34.30;96220.00;;;;8198040;28;20262;-58
2023/06/01 15:10:53;;;;;;;13.98;3.75;;;;;34.10;96221.00;;;;8199473;28;20255;-58
2023/06/01 15:14:59;;;;;;;4.05;2.55;;;;;33.20;96217.00;;;;8199328;28;20534;-59
2023/06/01 15:19:03;;;;;;;3.10;2.30;;;;;32.60;96215.00;;;;8200717;28;20231;-59
2023/06/01 15:23:06;;;;;;;6.00;2.70;;;;;32.20;96213.00;;;;8199084;28;20291;-59
2023/06/01 15:27:12;;;;;;;5.18;2.35;;;;;32.30;96205.00;;;;8207804;28;20654;-58
2023/06/01 15:31:16;;;;;;;6.55;2.17;;;;;32.40;96207.00;;;;8202606;28;20562;-58
2023/06/01 15:35:21;;;;;;;6.45;3.08;;;;;32.40;96212.00;;;;8199622;28;20208;-58
2023/06/01 15:39:24;;;;;;;4.20;2.55;;;;;32.10;96210.00;;;;8207312;28;20212;-58
2023/06/01 15:43:27;;;;;;;5.82;2.33;;;;;31.80;96209.00;;;;8204554;28;20278;-58
2023/06/01 15:47:32;;;;;;;9.00;2.58;;;;;31.40;96210.00;;;;8207524;28;20294;-59
2023/06/01 15:51:36;;;;;;;3.47;2.30;;;;;31.00;96199.00;;;;8197158;28;20630;-58
2023/06/01 15:55:40;;;;;;;3.35;2.38;;;;;30.70;96196.00;;;;8207717;28;20247;-58
2023/06/01 15:59:43;;;;;;;7.95;2.40;;;;;30.40;96192.00;;;;8200737;28;20236;-57
2023/06/01 16:03:47;;;;;;;6.30;2.78;;;;;30.20;96190.00;;;;8202706;28;20234;-58
2023/06/01 16:07:52;;;;;;;6.40;3.17;;;;;30.10;96191.00;;;;8202352;28;20204;-59
2023/06/01 16:11:58;;;;;;;4.32;2.80;;;;;30.10;96185.00;;;;8208621;28;20246;-58
2023/06/01 16:16:07;;;;;;;7.15;2.40;;;;;30.10;96192.00;;;;8206275;28;20732;-58
2023/06/01 16:20:12;;;;;;;3.50;2.15;;;;;29.90;96188.00;;;;8195577;28;20294;-58
2023/06/01 16:24:19;;;;;;;4.38;2.45;;;;;29.80;96189.00;;;;8215173;28;20226;-58
2023/06/01 16:28:22;;;;;;;8.02;2.33;;;;;29.50;96185.00;;;;8209192;28;20203;-57
2023/06/01 16:32:26;;;;;;;4.53;2.22;;;;;29.30;96182.00;;;;8190117;28;20223;-58
2023/06/01 16:36:31;;;;;;;6.85;2.60;;;;;29.10;96176.00;;;;8204880;28;20203;-57
2023/06/01 16:40:36;;;;;;;3.47;2.15;;;;;28.90;96173.00;;;;8206955;28;20574;-57
2023/06/01 16:44:42;;;;;;;2.35;2.15;;;;;28.70;96178.00;;;;8209315;28;20306;-57
2023/06/01 16:48:47;;;;;;;4.43;2.15;;;;;28.60;96181.00;;;;8203608;28;20286;-57
2023/06/01 16:52:53;;;;;;;2.67;2.15;;;;;28.40;96176.00;;;;8211965;28;20259;-58
2023/06/01 16:56:57;;;;;;;5.20;2.25;;;;;28.30;96174.00;;;;8211028;28;20199;-58
2023/06/01 17:01:01;;;;;;;5.22;2.55;;;;;28.20;96168.00;;;;8211207;28;20214;-57
2023/06/01 17:05:05;;;;;;;4.70;2.30;;;;;28.20;96166.00;;;;8199340;28;20299;-57
2023/06/01 17:09:13;;;;;;;6.15;2.10;;;;;28.10;96168.00;;;;8208524;28;20626;-58
2023/06/01 17:13:18;;;;;;;5.43;2.40;;;;;28.10;96164.00;;;;8202813;28;20597;-57
2023/06/01 17:17:25;;;;;;;2.70;2.17;;;;;28.00;96161.00;;;;8198493;28;20208;-58
2023/06/01 17:21:29;;;;;;;4.80;2.40;;;;;28.10;96162.00;;;;8177485;28;20903;-57
2023/06/01 17:25:34;;;;;;;2.58;2.08;;;;;28.20;96163.00;;;;8205124;28;20204;-58
2023/06/01 17:29:37;;;;;;;4.70;2.10;;;;;28.20;96160.00;;;;8198410;28;20214;-57
2023/06/01 17:33:41;;;;;;;2.97;2.13;;;;;28.20;96157.00;;;;8203977;28;20220;-58
2023/06/01 17:37:44;;;;;;;3.47;2.03;;;;;28.10;96162.00;;;;8185049;28;20210;-58
2023/06/01 17:41:49;;;;;;;7.25;2.38;;;;;28.00;96158.00;;;;8201674;28;20600;-57
2023/06/01 17:45:52;;;;;;;2.95;2.22;;;;;27.80;96156.00;;;;8200307;28;20676;-58
2023/06/01 17:49:56;;;;;;;2.40;2.20;;;;;27.70;96158.00;;;;8178151;28;20766;-57
2023/06/01 17:53:59;;;;;;;5.18;2.05;;;;;27.40;96151.00;;;;8201754;28;20326;-57
2023/06/01 17:58:03;;;;;;;4.38;2.28;;;;;27.10;96154.00;;;;8208100;28;20618;-58
2023/06/01 18:02:07;;;;;;;2.83;2.63;;;;;26.60;96149.00;;;;8209239;28;20224;-58
2023/06/01 18:06:10;;;;;;;11.85;2.65;;;;;26.30;96142.00;;;;8206555;28;20313;-58
2023/06/01 18:10:13;;;;;;;4.00;2.03;;;;;26.00;96138.00;;;;8207572;28;20196;-57
2023/06/01 18:14:20;;;;;;;4.63;2.40;;;;;25.70;96141.00;;;;8203343;28;20199;-58
2023/06/01 18:18:25;;;;;;;4.95;2.20;;;;;25.40;96142.00;;;;8207994;28;20224;-59
2023/06/01 18:22:33;;;;;;;6.90;2.65;;;;;25.20;96137.00;;;;8188239;28;20209;-58
2023/06/01 18:26:36;;;;;;;8.32;3.40;;;;;24.90;96142.00;;;;8199616;28;20199;-57
2023/06/01 18:30:43;;;;;;;5.70;2.47;;;;;24.60;96140.00;;;;8201650;28;20223;-58
2023/06/01 18:34:46;;;;;;;4.25;2.60;;;;;24.10;96142.00;;;;8208988;28;20226;-58
2023/06/01 18:38:49;;;;;;;7.57;2.75;;;;;23.70;96139.00;;;;8212529;28;20307;-57
2023/06/01 18:42:56;;;;;;;5.63;2.72;;;;;23.20;96146.00;;;;8205152;28;20208;-58
2023/06/01 18:47:06;;;;;;;2.95;2.47;;;;;22.80;96148.00;;;;8200029;28;20219;-57
2023/06/01 18:51:11;;;;;;;7.80;2.60;;;;;22.40;96152.00;;;;8209856;28;20318;-58
2023/06/01 18:55:17;;;;;;;4.75;3.13;;;;;22.10;96151.00;;;;8211483;28;20203;-57
2023/06/01 18:59:20;;;;;;;2.53;2.30;;;;;21.70;96145.00;;;;8211793;28;20202;-58
2023/06/01 19:03:25;;;;;;;4.30;2.42;;;;;21.40;96137.00;;;;8207745;28;20341;-58
2023/06/01 19:07:34;;;;;;;3.17;2.80;;;;;21.20;96145.00;;;;8201444;28;20205;-58
2023/06/01 19:11:40;;;;;;;5.90;2.65;;;;;21.00;96151.00;;;;8214178;28;20255;-58
2023/06/01 19:15:43;;;;;;;7.25;2.75;;;;;20.80;96147.00;;;;8201365;28;20200;-58
2023/06/01 19:19:52;;;;;;;3.00;2.20;;;;;20.60;96141.00;;;;8209790;28;20684;-58
2023/06/01 19:24:10;;;;;;;3.67;2.78;;;;;20.40;96147.00;;;;8200827;28;20283;-58
2023/06/01 19:28:19;;;;;;;9.52;2.97;;;;;20.20;96148.00;;;;8199267;28;20196;-57
2023/06/01 19:32:24;;;;;;;5.30;2.70;;;;;20.00;96153.00;;;;8205445;28;20602;-58
2023/06/01 19:36:50;;;;;;;7.40;3.00;;;;;19.80;96152.00;;;;8186292;28;20214;-58
2023/06/01 19:40:55;;;;;;;6.65;2.60;;;;;19.60;96154.00;;;;8207735;28;20211;-58
2023/06/01 19:45:00;;;;;;;7.07;2.60;;;;;19.30;96155.00;;;;8203053;28;20214;-58
2023/06/01 19:49:04;;;;;;;3.80;2.63;;;;;19.10;96167.00;;;;8201595;28;20250;-58
2023/06/01 19:53:09;;;;;;;3.92;2.80;;;;;18.80;96153.00;;;;8201844;28;20239;-58
2023/06/01 19:57:17;;;;;;;4.15;2.78;;;;;18.60;96152.00;;;;8201016;28;20239;-58
2023/06/01 20:01:24;;;;;;;6.72;2.70;;;;;18.40;96151.00;;;;8201010;28;20319;-57
2023/06/01 20:05:28;;;;;;;5.85;2.40;;;;;18.30;96152.00;;;;8199588;28;20203;-58
2023/06/01 20:09:35;;;;;;;2.95;2.40;;;;;18.20;96154.00;;;;8204221;28;20243;-58
2023/06/01 20:13:42;;;;;;;6.88;2.97;;;;;18.10;96158.00;;;;8183929;28;20322;-58
2023/06/01 20:17:45;;;;;;;8.52;2.90;;;;;18.00;96155.00;;;;8197385;28;20814;-58
2023/06/01 20:21:51;;;;;;;7.55;2.78;;;;;18.00;96148.00;;;;8198055;28;20720;-59
2023/06/01 20:25:57;;;;;;;5.63;2.88;;;;;17.80;96156.00;;;;8199546;28;20710;-59
2023/06/01 20:30:02;;;;;;;4.40;2.45;;;;;17.70;96150.00;;;;8200841;28;20199;-58
2023/06/01 20:34:07;;;;;;;6.15;2.53;;;;;17.50;96149.00;;;;8204774;28;20236;-59
2023/06/01 20:38:14;;;;;;;9.35;2.85;;;;;17.40;96148.00;;;;8203399;28;20200;-58
2023/06/01 20:42:19;;;;;;;7.18;2.83;;;;;17.20;96144.00;;;;8200754;28;20623;-58